sensor_id;sensor_type;location;lat;lon;timestamp;temperature;humidity
68826;DHT22;55841;53.392;10.086;2022-07-22T00:01:57;19.30;87.80
68826;DHT22;55841;53.392;10.086;2022-07-22T00:04:22;19.30;87.80
68826;DHT22;55841;53.392;10.086;2022-07-22T00:06:48;19.30;87.80
68826;DHT22;55841;53.392;10.086;2022-07-22T00:09:14;19.30;87.90
68826;DHT22;55841;53.392;10.086;2022-07-22T00:11:39;19.30;88.00
68826;DHT22;55841;53.392;10.086;2022-07-22T00:14:05;19.30;88.30
68826;DHT22;55841;53.392;10.086;2022-07-22T00:16:30;19.30;88.40
68826;DHT22;55841;53.392;10.086;2022-07-22T00:18:56;19.30;88.40
68826;DHT22;55841;53.392;10.086;2022-07-22T00:21:21;19.30;88.50
68826;DHT22;55841;53.392;10.086;2022-07-22T00:23:47;19.40;88.30
68826;DHT22;55841;53.392;10.086;2022-07-22T00:26:13;19.40;88.10
68826;DHT22;55841;53.392;10.086;2022-07-22T00:28:38;19.40;88.10
68826;DHT22;55841;53.392;10.086;2022-07-22T00:31:04;19.40;88.30
68826;DHT22;55841;53.392;10.086;2022-07-22T00:33:30;19.40;88.30
68826;DHT22;55841;53.392;10.086;2022-07-22T00:35:56;19.50;88.20
68826;DHT22;55841;53.392;10.086;2022-07-22T00:38:21;19.50;88.00
68826;DHT22;55841;53.392;10.086;2022-07-22T00:40:47;19.50;88.10
68826;DHT22;55841;53.392;10.086;2022-07-22T00:43:12;19.50;88.10
68826;DHT22;55841;53.392;10.086;2022-07-22T00:45:38;19.50;87.90
68826;DHT22;55841;53.392;10.086;2022-07-22T00:48:04;19.50;88.10
68826;DHT22;55841;53.392;10.086;2022-07-22T00:50:29;19.50;88.30
68826;DHT22;55841;53.392;10.086;2022-07-22T00:52:55;19.50;88.20
68826;DHT22;55841;53.392;10.086;2022-07-22T00:55:21;19.40;87.70
68826;DHT22;55841;53.392;10.086;2022-07-22T00:57:47;19.30;87.50
68826;DHT22;55841;53.392;10.086;2022-07-22T01:00:18;19.10;87.80
68826;DHT22;55841;53.392;10.086;2022-07-22T01:02:44;19.00;88.00
68826;DHT22;55841;53.392;10.086;2022-07-22T01:05:09;18.90;88.20
68826;DHT22;55841;53.392;10.086;2022-07-22T01:07:37;18.80;87.60
68826;DHT22;55841;53.392;10.086;2022-07-22T01:10:04;18.70;88.00
68826;DHT22;55841;53.392;10.086;2022-07-22T01:12:29;18.60;88.20
68826;DHT22;55841;53.392;10.086;2022-07-22T01:14:55;18.50;88.40
68826;DHT22;55841;53.392;10.086;2022-07-22T01:17:21;18.40;88.70
68826;DHT22;55841;53.392;10.086;2022-07-22T01:19:47;18.40;88.50
68826;DHT22;55841;53.392;10.086;2022-07-22T01:22:12;18.30;88.00
68826;DHT22;55841;53.392;10.086;2022-07-22T01:24:38;18.30;88.00
68826;DHT22;55841;53.392;10.086;2022-07-22T01:27:04;18.30;87.60
68826;DHT22;55841;53.392;10.086;2022-07-22T01:29:29;18.20;88.00
68826;DHT22;55841;53.392;10.086;2022-07-22T01:31:55;18.20;88.30
68826;DHT22;55841;53.392;10.086;2022-07-22T01:34:20;18.10;88.30
68826;DHT22;55841;53.392;10.086;2022-07-22T01:36:46;18.10;88.50
68826;DHT22;55841;53.392;10.086;2022-07-22T01:39:11;18.10;88.10
68826;DHT22;55841;53.392;10.086;2022-07-22T01:41:37;18.00;87.90
68826;DHT22;55841;53.392;10.086;2022-07-22T01:44:03;18.00;88.40
68826;DHT22;55841;53.392;10.086;2022-07-22T01:46:29;17.90;87.70
68826;DHT22;55841;53.392;10.086;2022-07-22T01:48:54;17.90;88.30
68826;DHT22;55841;53.392;10.086;2022-07-22T01:51:20;17.80;87.90
68826;DHT22;55841;53.392;10.086;2022-07-22T01:53:46;17.80;87.70
68826;DHT22;55841;53.392;10.086;2022-07-22T01:56:11;17.70;87.80
68826;DHT22;55841;53.392;10.086;2022-07-22T01:58:37;17.70;87.10
68826;DHT22;55841;53.392;10.086;2022-07-22T02:01:03;17.70;87.10
68826;DHT22;55841;53.392;10.086;2022-07-22T02:03:28;17.70;86.60
68826;DHT22;55841;53.392;10.086;2022-07-22T02:05:54;17.60;85.50
68826;DHT22;55841;53.392;10.086;2022-07-22T02:08:20;17.50;86.30
68826;DHT22;55841;53.392;10.086;2022-07-22T02:10:45;17.50;86.00
68826;DHT22;55841;53.392;10.086;2022-07-22T02:13:12;17.50;86.00
68826;DHT22;55841;53.392;10.086;2022-07-22T02:15:37;17.50;86.30
68826;DHT22;55841;53.392;10.086;2022-07-22T02:18:10;17.50;86.60
68826;DHT22;55841;53.392;10.086;2022-07-22T02:20:36;17.40;86.20
68826;DHT22;55841;53.392;10.086;2022-07-22T02:23:01;17.40;86.20
68826;DHT22;55841;53.392;10.086;2022-07-22T02:25:27;17.30;86.40
68826;DHT22;55841;53.392;10.086;2022-07-22T02:27:52;17.30;86.20
68826;DHT22;55841;53.392;10.086;2022-07-22T02:30:18;17.30;86.40
68826;DHT22;55841;53.392;10.086;2022-07-22T02:32:43;17.30;85.90
68826;DHT22;55841;53.392;10.086;2022-07-22T02:35:09;17.30;85.80
68826;DHT22;55841;53.392;10.086;2022-07-22T02:37:34;17.30;85.80
68826;DHT22;55841;53.392;10.086;2022-07-22T02:40:00;17.20;85.50
68826;DHT22;55841;53.392;10.086;2022-07-22T02:42:26;17.20;85.40
68826;DHT22;55841;53.392;10.086;2022-07-22T02:44:51;17.10;85.50
68826;DHT22;55841;53.392;10.086;2022-07-22T02:47:17;17.10;85.80
68826;DHT22;55841;53.392;10.086;2022-07-22T02:49:42;17.00;85.90
68826;DHT22;55841;53.392;10.086;2022-07-22T02:52:08;17.10;86.00
68826;DHT22;55841;53.392;10.086;2022-07-22T02:54:33;17.10;85.40
68826;DHT22;55841;53.392;10.086;2022-07-22T02:56:59;17.10;86.00
68826;DHT22;55841;53.392;10.086;2022-07-22T02:59:25;17.10;85.80
68826;DHT22;55841;53.392;10.086;2022-07-22T03:01:51;17.10;85.40
68826;DHT22;55841;53.392;10.086;2022-07-22T03:04:16;17.10;85.30
68826;DHT22;55841;53.392;10.086;2022-07-22T03:06:42;17.10;85.00
68826;DHT22;55841;53.392;10.086;2022-07-22T03:09:07;17.10;85.30
68826;DHT22;55841;53.392;10.086;2022-07-22T03:11:33;17.10;85.40
68826;DHT22;55841;53.392;10.086;2022-07-22T03:13:58;17.00;85.60
68826;DHT22;55841;53.392;10.086;2022-07-22T03:16:24;17.00;85.70
68826;DHT22;55841;53.392;10.086;2022-07-22T03:18:49;17.00;85.80
68826;DHT22;55841;53.392;10.086;2022-07-22T03:21:15;17.00;85.50
68826;DHT22;55841;53.392;10.086;2022-07-22T03:23:41;17.10;85.40
68826;DHT22;55841;53.392;10.086;2022-07-22T03:26:06;17.10;84.90
68826;DHT22;55841;53.392;10.086;2022-07-22T03:28:32;17.10;85.10
68826;DHT22;55841;53.392;10.086;2022-07-22T03:30:57;17.10;85.00
68826;DHT22;55841;53.392;10.086;2022-07-22T03:33:23;17.10;84.50
68826;DHT22;55841;53.392;10.086;2022-07-22T03:35:48;17.10;84.60
68826;DHT22;55841;53.392;10.086;2022-07-22T03:38:14;17.00;84.80
68826;DHT22;55841;53.392;10.086;2022-07-22T03:40:39;17.00;85.10
68826;DHT22;55841;53.392;10.086;2022-07-22T03:43:05;16.90;85.30
68826;DHT22;55841;53.392;10.086;2022-07-22T03:45:30;16.90;85.40
68826;DHT22;55841;53.392;10.086;2022-07-22T03:47:56;16.90;85.70
68826;DHT22;55841;53.392;10.086;2022-07-22T03:50:21;16.90;86.10
68826;DHT22;55841;53.392;10.086;2022-07-22T03:52:47;16.90;85.90
68826;DHT22;55841;53.392;10.086;2022-07-22T03:55:12;16.90;86.30
68826;DHT22;55841;53.392;10.086;2022-07-22T03:57:38;16.90;86.80
68826;DHT22;55841;53.392;10.086;2022-07-22T04:00:04;16.90;87.00
68826;DHT22;55841;53.392;10.086;2022-07-22T04:02:30;16.90;87.30
68826;DHT22;55841;53.392;10.086;2022-07-22T04:04:55;16.90;87.40
68826;DHT22;55841;53.392;10.086;2022-07-22T04:07:21;16.90;87.70
68826;DHT22;55841;53.392;10.086;2022-07-22T04:09:46;16.90;88.20
68826;DHT22;55841;53.392;10.086;2022-07-22T04:12:12;16.90;88.30
68826;DHT22;55841;53.392;10.086;2022-07-22T04:14:37;16.90;88.00
68826;DHT22;55841;53.392;10.086;2022-07-22T04:17:03;16.90;88.70
68826;DHT22;55841;53.392;10.086;2022-07-22T04:19:29;16.90;88.00
68826;DHT22;55841;53.392;10.086;2022-07-22T04:21:54;16.90;88.10
68826;DHT22;55841;53.392;10.086;2022-07-22T04:24:20;16.90;87.30
68826;DHT22;55841;53.392;10.086;2022-07-22T04:26:45;16.90;87.00
68826;DHT22;55841;53.392;10.086;2022-07-22T04:29:11;16.90;87.20
68826;DHT22;55841;53.392;10.086;2022-07-22T04:31:36;16.90;87.10
68826;DHT22;55841;53.392;10.086;2022-07-22T04:34:02;16.90;87.60
68826;DHT22;55841;53.392;10.086;2022-07-22T04:36:27;17.00;86.80
68826;DHT22;55841;53.392;10.086;2022-07-22T04:38:53;17.00;86.00
68826;DHT22;55841;53.392;10.086;2022-07-22T04:41:18;17.00;86.20
68826;DHT22;55841;53.392;10.086;2022-07-22T04:43:44;17.00;86.50
68826;DHT22;55841;53.392;10.086;2022-07-22T04:46:09;16.90;85.70
68826;DHT22;55841;53.392;10.086;2022-07-22T04:48:35;16.90;85.50
68826;DHT22;55841;53.392;10.086;2022-07-22T04:51:02;16.90;85.90
68826;DHT22;55841;53.392;10.086;2022-07-22T04:53:28;16.90;85.90
68826;DHT22;55841;53.392;10.086;2022-07-22T04:55:54;16.90;85.00
68826;DHT22;55841;53.392;10.086;2022-07-22T04:58:20;17.00;85.40
68826;DHT22;55841;53.392;10.086;2022-07-22T05:00:46;17.00;85.40
68826;DHT22;55841;53.392;10.086;2022-07-22T05:03:11;17.00;83.90
68826;DHT22;55841;53.392;10.086;2022-07-22T05:05:37;17.00;84.20
68826;DHT22;55841;53.392;10.086;2022-07-22T05:08:03;17.10;84.40
68826;DHT22;55841;53.392;10.086;2022-07-22T05:10:29;17.10;83.80
68826;DHT22;55841;53.392;10.086;2022-07-22T05:12:54;17.00;83.70
68826;DHT22;55841;53.392;10.086;2022-07-22T05:15:20;17.00;83.70
68826;DHT22;55841;53.392;10.086;2022-07-22T05:17:45;17.00;83.90
68826;DHT22;55841;53.392;10.086;2022-07-22T05:20:11;17.00;83.50
68826;DHT22;55841;53.392;10.086;2022-07-22T05:22:36;17.00;83.90
68826;DHT22;55841;53.392;10.086;2022-07-22T05:25:02;17.00;83.90
68826;DHT22;55841;53.392;10.086;2022-07-22T05:27:28;17.00;82.90
68826;DHT22;55841;53.392;10.086;2022-07-22T05:29:53;17.00;83.40
68826;DHT22;55841;53.392;10.086;2022-07-22T05:32:19;17.00;83.70
68826;DHT22;55841;53.392;10.086;2022-07-22T05:34:44;17.10;82.70
68826;DHT22;55841;53.392;10.086;2022-07-22T05:37:10;17.10;82.80
68826;DHT22;55841;53.392;10.086;2022-07-22T05:39:38;17.10;82.90
68826;DHT22;55841;53.392;10.086;2022-07-22T05:42:04;17.10;82.50
68826;DHT22;55841;53.392;10.086;2022-07-22T05:44:30;17.20;82.40
68826;DHT22;55841;53.392;10.086;2022-07-22T05:46:55;17.20;82.10
68826;DHT22;55841;53.392;10.086;2022-07-22T05:49:21;17.20;82.60
68826;DHT22;55841;53.392;10.086;2022-07-22T05:51:46;17.10;82.70
68826;DHT22;55841;53.392;10.086;2022-07-22T05:54:12;17.10;82.40
68826;DHT22;55841;53.392;10.086;2022-07-22T05:56:37;17.10;82.60
68826;DHT22;55841;53.392;10.086;2022-07-22T05:59:03;17.10;82.30
68826;DHT22;55841;53.392;10.086;2022-07-22T06:01:28;17.00;81.60
68826;DHT22;55841;53.392;10.086;2022-07-22T06:03:54;17.00;82.00
68826;DHT22;55841;53.392;10.086;2022-07-22T06:06:19;17.00;82.40
68826;DHT22;55841;53.392;10.086;2022-07-22T06:08:45;17.10;82.30
68826;DHT22;55841;53.392;10.086;2022-07-22T06:11:11;17.10;82.40
68826;DHT22;55841;53.392;10.086;2022-07-22T06:13:37;17.20;81.70
68826;DHT22;55841;53.392;10.086;2022-07-22T06:16:03;17.40;80.90
68826;DHT22;55841;53.392;10.086;2022-07-22T06:18:35;17.40;80.60
68826;DHT22;55841;53.392;10.086;2022-07-22T06:21:00;17.50;79.80
68826;DHT22;55841;53.392;10.086;2022-07-22T06:23:40;17.70;79.30
68826;DHT22;55841;53.392;10.086;2022-07-22T06:26:06;17.80;79.00
68826;DHT22;55841;53.392;10.086;2022-07-22T06:28:35;17.80;77.80
68826;DHT22;55841;53.392;10.086;2022-07-22T06:31:01;-50.00;1.00
68826;DHT22;55841;53.392;10.086;2022-07-22T06:33:27;18.00;77.20
68826;DHT22;55841;53.392;10.086;2022-07-22T06:35:53;18.00;77.50
68826;DHT22;55841;53.392;10.086;2022-07-22T06:38:18;18.00;77.00
68826;DHT22;55841;53.392;10.086;2022-07-22T06:40:47;18.00;77.30
68826;DHT22;55841;53.392;10.086;2022-07-22T06:43:23;18.00;76.90
68826;DHT22;55841;53.392;10.086;2022-07-22T07:35:02;18.20;75.30
68826;DHT22;55841;53.392;10.086;2022-07-22T07:37:28;18.40;73.70
68826;DHT22;55841;53.392;10.086;2022-07-22T07:40:02;18.60;73.80
68826;DHT22;55841;53.392;10.086;2022-07-22T07:42:42;18.70;73.10
68826;DHT22;55841;53.392;10.086;2022-07-22T07:45:08;-50.00;1.00
68826;DHT22;55841;53.392;10.086;2022-07-22T07:47:35;19.00;71.30
68826;DHT22;55841;53.392;10.086;2022-07-22T07:50:01;19.10;70.80
68826;DHT22;55841;53.392;10.086;2022-07-22T07:52:27;19.10;70.40
68826;DHT22;55841;53.392;10.086;2022-07-22T07:54:53;19.20;70.80
68826;DHT22;55841;53.392;10.086;2022-07-22T07:57:22;19.10;70.20
68826;DHT22;55841;53.392;10.086;2022-07-22T07:59:49;-50.00;1.00
68826;DHT22;55841;53.392;10.086;2022-07-22T08:05:48;18.50;71.90
68826;DHT22;55841;53.392;10.086;2022-07-22T08:08:13;-50.00;1.00
68826;DHT22;55841;53.392;10.086;2022-07-22T08:10:44;18.30;72.60
68826;DHT22;55841;53.392;10.086;2022-07-22T08:39:07;18.40;72.00
68826;DHT22;55841;53.392;10.086;2022-07-22T08:48:23;18.40;70.00
68826;DHT22;55841;53.392;10.086;2022-07-22T08:51:34;18.60;70.00
68826;DHT22;55841;53.392;10.086;2022-07-22T08:54:00;18.70;68.90
68826;DHT22;55841;53.392;10.086;2022-07-22T11:49:08;-50.00;1.00
68826;DHT22;55841;53.392;10.086;2022-07-22T11:51:35;20.50;57.50
68826;DHT22;55841;53.392;10.086;2022-07-22T11:54:02;20.60;56.40
68826;DHT22;55841;53.392;10.086;2022-07-22T11:56:29;20.60;55.20
68826;DHT22;55841;53.392;10.086;2022-07-22T12:10:56;21.20;54.90
68826;DHT22;55841;53.392;10.086;2022-07-22T12:13:28;21.60;53.80
68826;DHT22;55841;53.392;10.086;2022-07-22T12:20:08;22.00;54.40
68826;DHT22;55841;53.392;10.086;2022-07-22T12:22:48;-50.00;1.00
68826;DHT22;55841;53.392;10.086;2022-07-22T12:25:17;-50.00;1.00
68826;DHT22;55841;53.392;10.086;2022-07-22T12:34:38;21.60;53.70
68826;DHT22;55841;53.392;10.086;2022-07-22T12:37:51;21.40;54.60
68826;DHT22;55841;53.392;10.086;2022-07-22T12:40:21;21.30;54.30
68826;DHT22;55841;53.392;10.086;2022-07-22T12:43:06;21.60;54.60
68826;DHT22;55841;53.392;10.086;2022-07-22T12:45:33;21.70;54.00
68826;DHT22;55841;53.392;10.086;2022-07-22T12:50:42;21.60;55.00
68826;DHT22;55841;53.392;10.086;2022-07-22T12:53:14;21.50;54.40
68826;DHT22;55841;53.392;10.086;2022-07-22T12:59:20;21.40;55.10
68826;DHT22;55841;53.392;10.086;2022-07-22T13:01:48;21.60;55.40
68826;DHT22;55841;53.392;10.086;2022-07-22T13:04:14;21.70;53.70
68826;DHT22;55841;53.392;10.086;2022-07-22T13:06:40;21.50;54.50
68826;DHT22;55841;53.392;10.086;2022-07-22T13:09:06;21.60;55.40
68826;DHT22;55841;53.392;10.086;2022-07-22T13:11:31;22.00;54.30
68826;DHT22;55841;53.392;10.086;2022-07-22T13:14:11;22.20;52.80
68826;DHT22;55841;53.392;10.086;2022-07-22T13:16:36;-50.00;1.00
68826;DHT22;55841;53.392;10.086;2022-07-22T13:19:02;22.20;54.60
68826;DHT22;55841;53.392;10.086;2022-07-22T13:25:18;22.60;52.70
68826;DHT22;55841;53.392;10.086;2022-07-22T13:27:46;23.10;52.70
68826;DHT22;55841;53.392;10.086;2022-07-22T13:30:18;23.60;50.40
68826;DHT22;55841;53.392;10.086;2022-07-22T13:32:44;23.40;49.70
68826;DHT22;55841;53.392;10.086;2022-07-22T13:35:13;23.10;51.10
68826;DHT22;55841;53.392;10.086;2022-07-22T13:37:46;-50.00;1.00
68826;DHT22;55841;53.392;10.086;2022-07-22T13:40:21;22.70;53.40
68826;DHT22;55841;53.392;10.086;2022-07-22T13:46:10;22.20;54.60
68826;DHT22;55841;53.392;10.086;2022-07-22T13:48:46;-50.00;1.00
68826;DHT22;55841;53.392;10.086;2022-07-22T13:55:14;22.90;53.70
68826;DHT22;55841;53.392;10.086;2022-07-22T14:08:15;22.70;53.00
68826;DHT22;55841;53.392;10.086;2022-07-22T14:11:30;22.70;51.50
68826;DHT22;55841;53.392;10.086;2022-07-22T14:14:23;-50.00;1.00
68826;DHT22;55841;53.392;10.086;2022-07-22T14:28:46;22.10;53.50
68826;DHT22;55841;53.392;10.086;2022-07-22T14:45:49;22.00;53.80
68826;DHT22;55841;53.392;10.086;2022-07-22T14:48:44;21.80;54.80
68826;DHT22;55841;53.392;10.086;2022-07-22T16:00:15;22.70;51.30
68826;DHT22;55841;53.392;10.086;2022-07-22T16:03:34;22.50;52.80
68826;DHT22;55841;53.392;10.086;2022-07-22T16:06:38;22.40;52.70
68826;DHT22;55841;53.392;10.086;2022-07-22T16:12:27;-50.00;1.00
68826;DHT22;55841;53.392;10.086;2022-07-22T16:15:29;-50.00;1.00
68826;DHT22;55841;53.392;10.086;2022-07-22T16:18:03;21.50;53.40
68826;DHT22;55841;53.392;10.086;2022-07-22T17:27:19;20.20;58.00
68826;DHT22;55841;53.392;10.086;2022-07-22T17:30:13;20.10;57.70
68826;DHT22;55841;53.392;10.086;2022-07-22T17:33:02;20.10;58.20
68826;DHT22;55841;53.392;10.086;2022-07-22T17:35:31;20.00;58.20
68826;DHT22;55841;53.392;10.086;2022-07-22T17:38:17;-50.00;1.00
68826;DHT22;55841;53.392;10.086;2022-07-22T17:43:45;19.90;59.30
68826;DHT22;55841;53.392;10.086;2022-07-22T17:49:18;19.80;58.80
68826;DHT22;55841;53.392;10.086;2022-07-22T17:51:49;-50.00;1.00
68826;DHT22;55841;53.392;10.086;2022-07-22T17:54:17;-50.00;1.00
68826;DHT22;55841;53.392;10.086;2022-07-22T17:56:54;-50.00;1.00
68826;DHT22;55841;53.392;10.086;2022-07-22T18:02:04;19.60;59.80
68826;DHT22;55841;53.392;10.086;2022-07-22T18:04:30;-50.00;1.00
68826;DHT22;55841;53.392;10.086;2022-07-22T18:06:58;-50.00;1.00
68826;DHT22;55841;53.392;10.086;2022-07-22T18:09:24;19.70;59.80
68826;DHT22;55841;53.392;10.086;2022-07-22T18:12:11;-50.00;1.00
68826;DHT22;55841;53.392;10.086;2022-07-22T18:14:36;19.60;60.20
68826;DHT22;55841;53.392;10.086;2022-07-22T18:17:02;-50.00;1.00
68826;DHT22;55841;53.392;10.086;2022-07-22T18:19:28;-50.00;1.00
68826;DHT22;55841;53.392;10.086;2022-07-22T18:21:53;19.60;60.30
68826;DHT22;55841;53.392;10.086;2022-07-22T18:24:22;19.50;60.40
68826;DHT22;55841;53.392;10.086;2022-07-22T18:26:48;19.50;61.10
68826;DHT22;55841;53.392;10.086;2022-07-22T18:29:13;-50.00;1.00
68826;DHT22;55841;53.392;10.086;2022-07-22T18:31:39;-50.00;1.00
68826;DHT22;55841;53.392;10.086;2022-07-22T18:34:07;-50.00;1.00
68826;DHT22;55841;53.392;10.086;2022-07-22T18:36:36;-50.00;1.00
68826;DHT22;55841;53.392;10.086;2022-07-22T18:39:04;19.10;62.00
68826;DHT22;55841;53.392;10.086;2022-07-22T18:41:29;-50.00;1.00
68826;DHT22;55841;53.392;10.086;2022-07-22T18:43:58;-50.00;1.00
68826;DHT22;55841;53.392;10.086;2022-07-22T18:46:24;19.00;62.80
68826;DHT22;55841;53.392;10.086;2022-07-22T18:49:10;19.00;63.00
68826;DHT22;55841;53.392;10.086;2022-07-22T18:51:36;18.90;63.20
68826;DHT22;55841;53.392;10.086;2022-07-22T18:54:08;19.00;63.70
68826;DHT22;55841;53.392;10.086;2022-07-22T18:56:34;18.80;63.70
68826;DHT22;55841;53.392;10.086;2022-07-22T18:59:00;18.90;63.40
68826;DHT22;55841;53.392;10.086;2022-07-22T19:01:26;18.90;63.70
68826;DHT22;55841;53.392;10.086;2022-07-22T19:03:51;18.90;64.10
68826;DHT22;55841;53.392;10.086;2022-07-22T19:06:17;18.70;64.10
68826;DHT22;55841;53.392;10.086;2022-07-22T19:08:43;-50.00;1.00
68826;DHT22;55841;53.392;10.086;2022-07-22T19:11:09;18.70;63.90
68826;DHT22;55841;53.392;10.086;2022-07-22T19:13:38;18.70;64.00
68826;DHT22;55841;53.392;10.086;2022-07-22T19:16:06;18.90;64.20
68826;DHT22;55841;53.392;10.086;2022-07-22T19:18:32;18.70;64.20
68826;DHT22;55841;53.392;10.086;2022-07-22T19:21:00;18.90;64.40
68826;DHT22;55841;53.392;10.086;2022-07-22T19:23:26;19.00;64.30
68826;DHT22;55841;53.392;10.086;2022-07-22T19:25:51;18.70;64.40
68826;DHT22;55841;53.392;10.086;2022-07-22T19:28:17;-50.00;1.00
68826;DHT22;55841;53.392;10.086;2022-07-22T19:30:43;18.70;64.60
68826;DHT22;55841;53.392;10.086;2022-07-22T19:33:09;18.60;63.80
68826;DHT22;55841;53.392;10.086;2022-07-22T19:35:35;18.60;64.10
68826;DHT22;55841;53.392;10.086;2022-07-22T19:38:01;-50.00;1.00
68826;DHT22;55841;53.392;10.086;2022-07-22T19:40:31;18.50;64.50
68826;DHT22;55841;53.392;10.086;2022-07-22T19:42:56;18.40;64.80
68826;DHT22;55841;53.392;10.086;2022-07-22T19:45:22;18.40;65.20
68826;DHT22;55841;53.392;10.086;2022-07-22T19:47:48;18.40;65.30
68826;DHT22;55841;53.392;10.086;2022-07-22T19:50:14;18.40;65.60
68826;DHT22;55841;53.392;10.086;2022-07-22T19:52:40;18.40;65.50
68826;DHT22;55841;53.392;10.086;2022-07-22T19:55:09;18.40;65.80
68826;DHT22;55841;53.392;10.086;2022-07-22T19:57:36;18.30;65.60
68826;DHT22;55841;53.392;10.086;2022-07-22T20:00:02;18.30;66.00
68826;DHT22;55841;53.392;10.086;2022-07-22T20:02:28;18.30;65.90
68826;DHT22;55841;53.392;10.086;2022-07-22T20:04:53;18.20;66.20
68826;DHT22;55841;53.392;10.086;2022-07-22T20:07:19;18.20;66.40
68826;DHT22;55841;53.392;10.086;2022-07-22T20:09:44;18.20;66.30
68826;DHT22;55841;53.392;10.086;2022-07-22T20:12:10;18.20;66.70
68826;DHT22;55841;53.392;10.086;2022-07-22T20:14:35;18.20;66.20
68826;DHT22;55841;53.392;10.086;2022-07-22T20:17:01;18.20;66.30
68826;DHT22;55841;53.392;10.086;2022-07-22T20:19:26;18.20;66.20
68826;DHT22;55841;53.392;10.086;2022-07-22T20:21:52;18.20;66.30
68826;DHT22;55841;53.392;10.086;2022-07-22T20:24:17;18.20;66.20
68826;DHT22;55841;53.392;10.086;2022-07-22T20:26:43;18.20;67.00
68826;DHT22;55841;53.392;10.086;2022-07-22T20:29:08;18.10;66.60
68826;DHT22;55841;53.392;10.086;2022-07-22T20:31:34;18.10;66.70
68826;DHT22;55841;53.392;10.086;2022-07-22T20:33:59;18.10;66.80
68826;DHT22;55841;53.392;10.086;2022-07-22T20:36:25;18.10;67.10
68826;DHT22;55841;53.392;10.086;2022-07-22T20:38:50;18.10;66.70
68826;DHT22;55841;53.392;10.086;2022-07-22T20:41:16;18.10;66.70
68826;DHT22;55841;53.392;10.086;2022-07-22T20:43:42;18.10;66.70
68826;DHT22;55841;53.392;10.086;2022-07-22T20:46:07;18.10;66.80
68826;DHT22;55841;53.392;10.086;2022-07-22T20:48:33;18.10;66.80
68826;DHT22;55841;53.392;10.086;2022-07-22T20:50:58;18.00;67.30
68826;DHT22;55841;53.392;10.086;2022-07-22T20:53:24;18.00;67.30
68826;DHT22;55841;53.392;10.086;2022-07-22T20:55:49;18.00;67.10
68826;DHT22;55841;53.392;10.086;2022-07-22T20:58:15;18.00;67.40
68826;DHT22;55841;53.392;10.086;2022-07-22T21:00:40;18.00;67.10
68826;DHT22;55841;53.392;10.086;2022-07-22T21:03:06;18.00;67.00
68826;DHT22;55841;53.392;10.086;2022-07-22T21:05:32;18.00;67.30
68826;DHT22;55841;53.392;10.086;2022-07-22T21:07:57;18.00;67.70
68826;DHT22;55841;53.392;10.086;2022-07-22T21:10:23;18.00;67.60
68826;DHT22;55841;53.392;10.086;2022-07-22T21:12:48;17.90;67.80
68826;DHT22;55841;53.392;10.086;2022-07-22T21:15:14;17.90;67.50
68826;DHT22;55841;53.392;10.086;2022-07-22T21:17:40;17.90;67.70
68826;DHT22;55841;53.392;10.086;2022-07-22T21:20:06;17.90;67.60
68826;DHT22;55841;53.392;10.086;2022-07-22T21:22:31;17.80;67.80
68826;DHT22;55841;53.392;10.086;2022-07-22T21:24:57;17.80;68.00
68826;DHT22;55841;53.392;10.086;2022-07-22T21:27:23;17.80;68.30
68826;DHT22;55841;53.392;10.086;2022-07-22T21:29:48;17.80;68.00
68826;DHT22;55841;53.392;10.086;2022-07-22T21:32:14;17.80;68.20
68826;DHT22;55841;53.392;10.086;2022-07-22T21:34:40;17.70;68.30
68826;DHT22;55841;53.392;10.086;2022-07-22T21:37:05;17.80;68.60
68826;DHT22;55841;53.392;10.086;2022-07-22T21:39:31;17.80;68.20
68826;DHT22;55841;53.392;10.086;2022-07-22T21:41:56;17.80;68.70
68826;DHT22;55841;53.392;10.086;2022-07-22T21:44:22;17.80;68.10
68826;DHT22;55841;53.392;10.086;2022-07-22T21:46:47;17.80;67.70
68826;DHT22;55841;53.392;10.086;2022-07-22T21:49:13;17.80;67.70
68826;DHT22;55841;53.392;10.086;2022-07-22T21:51:39;17.80;68.10
68826;DHT22;55841;53.392;10.086;2022-07-22T21:54:04;17.70;68.20
68826;DHT22;55841;53.392;10.086;2022-07-22T21:56:30;17.70;68.20
68826;DHT22;55841;53.392;10.086;2022-07-22T21:58:55;17.70;68.20
68826;DHT22;55841;53.392;10.086;2022-07-22T22:01:21;17.70;68.20
68826;DHT22;55841;53.392;10.086;2022-07-22T22:03:46;17.70;68.00
68826;DHT22;55841;53.392;10.086;2022-07-22T22:06:12;17.60;68.50
68826;DHT22;55841;53.392;10.086;2022-07-22T22:08:37;17.60;68.70
68826;DHT22;55841;53.392;10.086;2022-07-22T22:11:03;17.60;68.60
68826;DHT22;55841;53.392;10.086;2022-07-22T22:13:28;17.60;68.40
68826;DHT22;55841;53.392;10.086;2022-07-22T22:15:54;17.60;68.50
68826;DHT22;55841;53.392;10.086;2022-07-22T22:18:19;17.50;68.80
68826;DHT22;55841;53.392;10.086;2022-07-22T22:20:45;17.50;68.50
68826;DHT22;55841;53.392;10.086;2022-07-22T22:23:11;17.50;68.50
68826;DHT22;55841;53.392;10.086;2022-07-22T22:25:36;17.40;68.90
68826;DHT22;55841;53.392;10.086;2022-07-22T22:28:02;17.40;69.10
68826;DHT22;55841;53.392;10.086;2022-07-22T22:30:27;17.40;69.10
68826;DHT22;55841;53.392;10.086;2022-07-22T22:32:53;17.30;68.90
68826;DHT22;55841;53.392;10.086;2022-07-22T22:35:19;17.30;69.10
68826;DHT22;55841;53.392;10.086;2022-07-22T22:37:44;17.20;69.10
68826;DHT22;55841;53.392;10.086;2022-07-22T22:40:10;17.20;69.30
68826;DHT22;55841;53.392;10.086;2022-07-22T22:42:35;17.20;69.60
68826;DHT22;55841;53.392;10.086;2022-07-22T22:45:01;17.20;69.90
68826;DHT22;55841;53.392;10.086;2022-07-22T22:47:27;17.10;69.80
68826;DHT22;55841;53.392;10.086;2022-07-22T22:49:52;17.10;70.00
68826;DHT22;55841;53.392;10.086;2022-07-22T22:52:18;17.10;69.80
68826;DHT22;55841;53.392;10.086;2022-07-22T22:54:43;17.10;69.90
68826;DHT22;55841;53.392;10.086;2022-07-22T22:57:09;17.10;70.40
68826;DHT22;55841;53.392;10.086;2022-07-22T22:59:34;17.10;70.60
68826;DHT22;55841;53.392;10.086;2022-07-22T23:02:00;17.10;70.40
68826;DHT22;55841;53.392;10.086;2022-07-22T23:04:25;17.10;70.70
68826;DHT22;55841;53.392;10.086;2022-07-22T23:06:51;17.10;70.90
68826;DHT22;55841;53.392;10.086;2022-07-22T23:09:16;17.00;71.00
68826;DHT22;55841;53.392;10.086;2022-07-22T23:11:42;17.00;71.30
68826;DHT22;55841;53.392;10.086;2022-07-22T23:14:07;17.00;71.40
68826;DHT22;55841;53.392;10.086;2022-07-22T23:16:33;17.00;71.50
68826;DHT22;55841;53.392;10.086;2022-07-22T23:18:58;17.00;71.30
68826;DHT22;55841;53.392;10.086;2022-07-22T23:21:24;17.00;71.20